Time;durP1;ratioP1;P1;durP2;ratioP2;P2;SDS_P1;SDS_P2;PMS_P1;PMS_P2;Temp;Humidity;BMP_temperature;BMP_pressure;BME280_temperature;BME280_humidity;BME280_pressure;Samples;Min_cycle;Max_cycle;Signal;HPM_P1;HPM_P2
2022/07/16 00:02:11;;;;;;;;;;;20.50;65.30;;;;;;2005834;28;19902;-67
2022/07/16 00:03:10;;;;;;;;;;;20.50;65.30;;;;;;2006742;28;19961;-66
2022/07/16 00:04:10;;;;;;;;;;;20.50;65.20;;;;;;2006702;28;19898;-66
2022/07/16 00:05:09;;;;;;;;;;;20.50;65.30;;;;;;2006375;28;19894;-66
2022/07/16 00:06:07;;;;;;;;;;;20.50;65.30;;;;;;2006051;28;19898;-67
2022/07/16 00:07:06;;;;;;;;;;;20.50;65.30;;;;;;2006647;28;19894;-67
2022/07/16 00:08:04;;;;;;;;;;;20.50;65.30;;;;;;2006605;28;19894;-66
2022/07/16 00:09:03;;;;;;;;;;;20.50;65.30;;;;;;2006446;28;19906;-67
2022/07/16 00:10:02;;;;;;;;;;;20.50;65.20;;;;;;2006401;28;19893;-67
2022/07/16 00:11:01;;;;;;;;;;;20.50;65.30;;;;;;2005907;28;19897;-66
2022/07/16 00:11:59;;;;;;;;;;;20.50;65.30;;;;;;2006105;28;19980;-66
2022/07/16 00:12:58;;;;;;;;;;;20.50;65.30;;;;;;2006170;28;19898;-66
2022/07/16 00:13:57;;;;;;;;;;;20.50;65.30;;;;;;2006477;28;19944;-67
2022/07/16 00:14:55;;;;;;;;;;;20.50;65.30;;;;;;2006439;28;19896;-67
2022/07/16 00:15:54;;;;;;;;;;;20.50;65.40;;;;;;2006221;28;19902;-67
2022/07/16 00:16:52;;;;;;;;;;;20.50;65.40;;;;;;2006039;28;19940;-67
2022/07/16 00:19:15;;;;;;;;;;;20.40;65.30;;;;;;2006301;28;19894;-67
2022/07/16 00:19:19;;;;;;;;;;;20.50;65.40;;;;;;2006099;28;19893;-67
2022/07/16 00:20:19;;;;;;;;;;;20.50;65.40;;;;;;2006421;28;19936;-67
2022/07/16 00:21:18;;;;;;;;;;;20.50;65.40;;;;;;2002873;28;19906;-67
2022/07/16 00:22:16;;;;;;;;;;;20.50;65.40;;;;;;1997990;28;19953;-67
2022/07/16 00:23:15;;;;;;;;;;;20.50;65.40;;;;;;2004824;28;19973;-66
2022/07/16 00:24:13;;;;;;;;;;;20.50;65.40;;;;;;2006275;28;19906;-67
2022/07/16 00:25:12;;;;;;;;;;;20.40;65.30;;;;;;2006174;28;19969;-68
2022/07/16 00:26:10;;;;;;;;;;;20.40;65.30;;;;;;2006237;28;19920;-67
2022/07/16 00:27:09;;;;;;;;;;;20.40;65.30;;;;;;2005451;28;19923;-67
2022/07/16 00:28:07;;;;;;;;;;;20.40;65.30;;;;;;2006369;28;19894;-67
2022/07/16 00:29:06;;;;;;;;;;;20.50;65.40;;;;;;2005766;28;19981;-67
2022/07/16 00:30:05;;;;;;;;;;;20.50;65.50;;;;;;2005945;28;19893;-67
2022/07/16 00:31:03;;;;;;;;;;;20.50;65.50;;;;;;2005505;28;19897;-67
2022/07/16 00:32:02;;;;;;;;;;;20.40;65.40;;;;;;2005995;28;19957;-67
2022/07/16 00:33:01;;;;;;;;;;;20.50;65.50;;;;;;2005561;28;19969;-67
2022/07/16 00:33:59;;;;;;;;;;;20.40;65.30;;;;;;2005992;28;19910;-67
2022/07/16 00:34:58;;;;;;;;;;;20.40;65.30;;;;;;2006438;28;19906;-67
2022/07/16 00:35:56;;;;;;;;;;;20.50;65.40;;;;;;2006252;28;19914;-67
2022/07/16 00:36:55;;;;;;;;;;;20.40;65.40;;;;;;2006004;28;20325;-67
2022/07/16 00:37:53;;;;;;;;;;;20.40;65.40;;;;;;2006388;28;19898;-67
2022/07/16 00:38:53;;;;;;;;;;;20.40;65.50;;;;;;2006330;28;19961;-67
2022/07/16 00:39:52;;;;;;;;;;;20.50;65.60;;;;;;2006327;28;19933;-67
2022/07/16 00:40:50;;;;;;;;;;;20.50;65.60;;;;;;2006192;28;20438;-67
2022/07/16 00:41:49;;;;;;;;;;;20.40;65.50;;;;;;2006272;28;19905;-67
2022/07/16 00:42:47;;;;;;;;;;;20.50;65.60;;;;;;2001113;28;19913;-67
2022/07/16 00:43:53;;;;;;;;;;;20.50;65.60;;;;;;1998132;28;19909;-67
2022/07/16 00:44:51;;;;;;;;;;;20.40;65.50;;;;;;2006019;28;19894;-67
2022/07/16 00:45:50;;;;;;;;;;;20.40;66.20;;;;;;2006204;28;19894;-67
2022/07/16 00:46:49;;;;;;;;;;;20.40;65.50;;;;;;2006281;28;19901;-67
2022/07/16 00:47:47;;;;;;;;;;;20.40;65.50;;;;;;2005611;28;19956;-67
2022/07/16 00:48:46;;;;;;;;;;;20.40;65.50;;;;;;2006228;28;19893;-67
2022/07/16 00:49:45;;;;;;;;;;;20.40;65.60;;;;;;2006450;28;19898;-67
2022/07/16 00:50:43;;;;;;;;;;;20.40;65.50;;;;;;2005845;28;19894;-67
2022/07/16 00:51:44;;;;;;;;;;;20.40;65.60;;;;;;2005788;28;19905;-68
2022/07/16 00:52:42;;;;;;;;;;;20.40;65.60;;;;;;2005743;28;19906;-67
2022/07/16 00:53:42;;;;;;;;;;;20.40;65.60;;;;;;2006021;28;19909;-67
2022/07/16 00:54:40;;;;;;;;;;;20.40;65.60;;;;;;2006225;28;19904;-66
2022/07/16 00:55:39;;;;;;;;;;;20.40;65.60;;;;;;2006113;28;19941;-67
2022/07/16 00:56:38;;;;;;;;;;;20.40;65.60;;;;;;2006889;28;19906;-67
2022/07/16 00:57:36;;;;;;;;;;;20.40;65.50;;;;;;2007608;28;19894;-66
2022/07/16 00:58:41;;;;;;;;;;;20.40;65.60;;;;;;2005707;28;19913;-67
2022/07/16 00:59:39;;;;;;;;;;;20.40;65.60;;;;;;2007210;28;19913;-67
2022/07/16 01:00:38;;;;;;;;;;;20.40;65.60;;;;;;2007124;28;19905;-68
2022/07/16 01:01:36;;;;;;;;;;;20.40;65.60;;;;;;2007269;28;19914;-68
2022/07/16 01:02:35;;;;;;;;;;;20.40;65.60;;;;;;2007299;28;19973;-67
2022/07/16 01:03:34;;;;;;;;;;;20.40;65.60;;;;;;2007481;28;19906;-67
2022/07/16 01:04:34;;;;;;;;;;;20.40;65.60;;;;;;2007195;28;19906;-67
2022/07/16 01:05:33;;;;;;;;;;;20.40;65.60;;;;;;2007246;28;19979;-67
2022/07/16 01:06:31;;;;;;;;;;;20.40;65.60;;;;;;2007137;28;19968;-66
2022/07/16 01:07:30;;;;;;;;;;;20.40;65.60;;;;;;2007605;28;19969;-67
2022/07/16 01:08:28;;;;;;;;;;;20.40;65.60;;;;;;2007384;28;19908;-66
2022/07/16 01:09:28;;;;;;;;;;;20.40;65.60;;;;;;2005778;28;19925;-67
2022/07/16 01:10:27;;;;;;;;;;;20.40;65.60;;;;;;1998247;28;19912;-67
2022/07/16 01:11:26;;;;;;;;;;;20.40;65.60;;;;;;1998249;28;19912;-67
2022/07/16 01:12:25;;;;;;;;;;;20.40;65.70;;;;;;1998171;28;20345;-67
2022/07/16 01:13:25;;;;;;;;;;;20.30;65.60;;;;;;1998114;28;19960;-67
2022/07/16 01:14:24;;;;;;;;;;;20.40;65.70;;;;;;1998197;28;19907;-67
2022/07/16 01:15:23;;;;;;;;;;;20.40;65.70;;;;;;1998009;28;20004;-67
2022/07/16 01:16:21;;;;;;;;;;;20.40;65.70;;;;;;1998201;28;19906;-67
2022/07/16 01:17:20;;;;;;;;;;;20.40;65.70;;;;;;1998211;28;19916;-67
2022/07/16 01:18:19;;;;;;;;;;;20.40;65.80;;;;;;1998368;28;19906;-67
2022/07/16 01:19:18;;;;;;;;;;;20.40;65.80;;;;;;1998183;28;19905;-67
2022/07/16 01:20:16;;;;;;;;;;;20.40;65.80;;;;;;1998175;28;19941;-67
2022/07/16 01:21:16;;;;;;;;;;;20.40;65.80;;;;;;1998273;28;19941;-67
2022/07/16 01:22:19;;;;;;;;;;;20.40;65.70;;;;;;1998200;28;19905;-67
2022/07/16 01:23:18;;;;;;;;;;;20.40;65.80;;;;;;1998270;28;19913;-67
2022/07/16 01:24:18;;;;;;;;;;;20.40;65.80;;;;;;1998184;28;20373;-67
2022/07/16 01:25:17;;;;;;;;;;;20.40;65.80;;;;;;1998201;28;19906;-67
2022/07/16 01:26:16;;;;;;;;;;;20.40;65.80;;;;;;1998095;28;20019;-67
2022/07/16 01:27:15;;;;;;;;;;;20.40;65.80;;;;;;1998069;28;19952;-67
2022/07/16 01:28:14;;;;;;;;;;;20.40;65.80;;;;;;1998098;28;20091;-67
2022/07/16 01:29:12;;;;;;;;;;;20.30;65.80;;;;;;1998070;28;19906;-67
2022/07/16 01:30:11;;;;;;;;;;;20.40;65.80;;;;;;1998102;28;20281;-68
2022/07/16 01:31:10;;;;;;;;;;;20.40;65.80;;;;;;1997973;28;20296;-67
2022/07/16 01:32:08;;;;;;;;;;;20.30;65.80;;;;;;1998093;28;19912;-67
2022/07/16 01:33:25;;;;;;;;;;;20.30;65.80;;;;;;1998066;28;19913;-68
2022/07/16 01:34:27;;;;;;;;;;;20.40;65.90;;;;;;1998043;28;19906;-67
2022/07/16 01:35:25;;;;;;;;;;;20.40;65.90;;;;;;1997959;28;19909;-67
2022/07/16 01:36:25;;;;;;;;;;;20.30;66.00;;;;;;1998086;28;19906;-67
2022/07/16 01:37:24;;;;;;;;;;;20.40;65.90;;;;;;1998001;28;19906;-68
2022/07/16 01:38:22;;;;;;;;;;;20.40;65.90;;;;;;1998181;28;19941;-67
2022/07/16 01:39:21;;;;;;;;;;;20.30;65.80;;;;;;1998137;28;19937;-68
2022/07/16 01:40:20;;;;;;;;;;;20.30;65.80;;;;;;1998083;28;19909;-67
2022/07/16 01:41:18;;;;;;;;;;;20.40;65.90;;;;;;1998058;28;19906;-67
2022/07/16 01:42:17;;;;;;;;;;;20.30;65.80;;;;;;1998119;28;19906;-67
2022/07/16 01:43:20;;;;;;;;;;;20.40;66.00;;;;;;1998050;28;19910;-67
2022/07/16 01:44:18;;;;;;;;;;;20.40;66.00;;;;;;1998054;28;20261;-67
2022/07/16 01:45:17;;;;;;;;;;;20.30;65.90;;;;;;1998033;28;19988;-67
2022/07/16 01:46:15;;;;;;;;;;;20.30;65.90;;;;;;1997963;28;19910;-67
2022/07/16 01:47:14;;;;;;;;;;;20.30;65.90;;;;;;1997882;28;19906;-67
2022/07/16 01:48:13;;;;;;;;;;;20.30;65.90;;;;;;1997872;28;19906;-67
2022/07/16 01:49:12;;;;;;;;;;;20.30;66.00;;;;;;1997972;28;19912;-67
2022/07/16 01:50:10;;;;;;;;;;;20.30;65.90;;;;;;1997915;28;19905;-67
2022/07/16 01:51:08;;;;;;;;;;;20.30;65.90;;;;;;1997837;28;19905;-67
2022/07/16 01:52:09;;;;;;;;;;;20.30;66.00;;;;;;1997921;28;19912;-67
2022/07/16 01:53:08;;;;;;;;;;;20.30;66.00;;;;;;1998017;28;19957;-68
2022/07/16 01:54:06;;;;;;;;;;;20.30;65.90;;;;;;1997930;28;20395;-68
2022/07/16 01:55:05;;;;;;;;;;;20.30;65.90;;;;;;1997786;28;19905;-67
2022/07/16 01:56:04;;;;;;;;;;;20.30;65.90;;;;;;1997841;28;19909;-67
2022/07/16 01:57:02;;;;;;;;;;;20.30;66.00;;;;;;1997917;28;19906;-67
2022/07/16 01:58:05;;;;;;;;;;;20.30;66.00;;;;;;1997945;28;20066;-67
2022/07/16 01:59:03;;;;;;;;;;;20.30;66.00;;;;;;1997781;28;19912;-67
2022/07/16 02:00:03;;;;;;;;;;;20.30;66.10;;;;;;1997915;28;19955;-67
2022/07/16 02:01:01;;;;;;;;;;;20.30;66.10;;;;;;1997658;28;19918;-68
2022/07/16 02:02:00;;;;;;;;;;;20.30;66.00;;;;;;1997901;28;20198;-67
2022/07/16 02:02:59;;;;;;;;;;;20.30;66.10;;;;;;1998048;28;19992;-67
2022/07/16 02:03:57;;;;;;;;;;;20.30;66.00;;;;;;1997306;28;20302;-67
2022/07/16 02:04:56;;;;;;;;;;;20.30;66.10;;;;;;1997281;28;19906;-68
2022/07/16 02:05:54;;;;;;;;;;;20.30;66.10;;;;;;1997815;28;20316;-67
2022/07/16 02:06:53;;;;;;;;;;;20.30;66.10;;;;;;1997701;28;20341;-68
2022/07/16 02:07:52;;;;;;;;;;;20.30;66.10;;;;;;1996899;28;20005;-67
2022/07/16 02:08:50;;;;;;;;;;;20.30;66.00;;;;;;1997744;28;19941;-67
2022/07/16 02:09:49;;;;;;;;;;;20.30;66.10;;;;;;1997942;28;19905;-67
2022/07/16 02:10:47;;;;;;;;;;;20.30;66.00;;;;;;1997730;28;19949;-67
2022/07/16 02:11:46;;;;;;;;;;;20.30;66.80;;;;;;1997838;28;19906;-68
2022/07/16 02:12:45;;;;;;;;;;;20.30;66.10;;;;;;1997800;28;19932;-67
2022/07/16 02:13:43;;;;;;;;;;;20.30;66.10;;;;;;1997748;28;19906;-67
2022/07/16 02:14:43;;;;;;;;;;;20.30;66.10;;;;;;1997671;28;19905;-67
2022/07/16 02:15:41;;;;;;;;;;;20.30;66.10;;;;;;1997114;28;19909;-68
2022/07/16 02:16:40;;;;;;;;;;;20.30;66.00;;;;;;1997122;28;19905;-67
2022/07/16 02:17:39;;;;;;;;;;;20.30;66.10;;;;;;1997713;28;19913;-68
2022/07/16 02:18:37;;;;;;;;;;;20.30;66.10;;;;;;1997739;28;20046;-67
2022/07/16 02:19:36;;;;;;;;;;;20.30;66.10;;;;;;1997785;28;19955;-67
2022/07/16 02:20:34;;;;;;;;;;;20.30;66.10;;;;;;1997798;28;19941;-68
2022/07/16 02:21:33;;;;;;;;;;;20.30;66.20;;;;;;1997672;28;19912;-68
2022/07/16 02:22:32;;;;;;;;;;;20.30;66.20;;;;;;1997702;28;19958;-67
2022/07/16 02:23:30;;;;;;;;;;;20.30;66.10;;;;;;1997714;28;20000;-67
2022/07/16 02:24:29;;;;;;;;;;;20.30;66.10;;;;;;1997710;28;19905;-67
2022/07/16 02:25:27;;;;;;;;;;;20.30;66.10;;;;;;1997754;28;19953;-67
2022/07/16 02:26:26;;;;;;;;;;;20.30;66.10;;;;;;1997773;28;19996;-68
2022/07/16 02:27:24;;;;;;;;;;;20.30;66.10;;;;;;1997715;28;20496;-67
2022/07/16 02:28:23;;;;;;;;;;;20.20;66.00;;;;;;1997633;28;19912;-68
2022/07/16 02:29:21;;;;;;;;;;;20.30;66.10;;;;;;1997728;28;19912;-68
2022/07/16 02:30:20;;;;;;;;;;;20.30;66.10;;;;;;1997614;28;19910;-68
2022/07/16 02:31:18;;;;;;;;;;;20.30;66.10;;;;;;1997674;28;20336;-67
2022/07/16 02:32:17;;;;;;;;;;;20.30;66.20;;;;;;1997666;28;20341;-67
2022/07/16 02:33:16;;;;;;;;;;;20.30;66.10;;;;;;1997825;28;19917;-68
2022/07/16 02:34:16;;;;;;;;;;;20.20;66.10;;;;;;1997590;28;20353;-68
2022/07/16 02:35:14;;;;;;;;;;;20.30;66.20;;;;;;1997493;28;19913;-68
2022/07/16 02:36:13;;;;;;;;;;;20.30;66.20;;;;;;1997557;28;19952;-68
2022/07/16 02:37:11;;;;;;;;;;;20.30;66.20;;;;;;1996837;28;19912;-68
2022/07/16 02:38:11;;;;;;;;;;;20.30;66.20;;;;;;1996994;28;19981;-68
2022/07/16 02:39:10;;;;;;;;;;;20.30;66.20;;;;;;1997463;28;19955;-67
2022/07/16 02:40:09;;;;;;;;;;;20.30;66.20;;;;;;1997658;28;19912;-67
2022/07/16 02:41:07;;;;;;;;;;;20.30;66.30;;;;;;1997525;28;19972;-67
2022/07/16 02:42:06;;;;;;;;;;;20.30;66.20;;;;;;1997567;28;20290;-67
2022/07/16 02:43:05;;;;;;;;;;;20.20;66.10;;;;;;1997538;28;20336;-67
2022/07/16 02:44:04;;;;;;;;;;;20.30;66.20;;;;;;1997336;28;20305;-67
2022/07/16 02:45:03;;;;;;;;;;;20.30;66.20;;;;;;1997610;28;19906;-67
2022/07/16 02:46:03;;;;;;;;;;;20.30;66.20;;;;;;1997544;28;19909;-67
2022/07/16 02:47:01;;;;;;;;;;;20.20;66.10;;;;;;1997524;28;19905;-67
2022/07/16 02:48:00;;;;;;;;;;;20.30;66.10;;;;;;1997574;28;19910;-67
2022/07/16 02:48:58;;;;;;;;;;;20.30;66.20;;;;;;1997480;28;19905;-67
2022/07/16 02:49:57;;;;;;;;;;;20.30;66.20;;;;;;1997538;28;19906;-67
2022/07/16 02:50:55;;;;;;;;;;;20.20;66.00;;;;;;1997433;28;19905;-66
2022/07/16 02:51:54;;;;;;;;;;;20.20;66.10;;;;;;1997609;28;19960;-69
2022/07/16 02:52:52;;;;;;;;;;;20.30;66.20;;;;;;1997459;28;19913;-69
2022/07/16 02:53:51;;;;;;;;;;;20.20;66.20;;;;;;1997492;28;19906;-67
2022/07/16 02:54:49;;;;;;;;;;;20.30;66.10;;;;;;1997431;28;19932;-67
2022/07/16 02:55:48;;;;;;;;;;;20.30;66.20;;;;;;1997564;28;20336;-67
2022/07/16 02:56:46;;;;;;;;;;;20.30;66.10;;;;;;1997366;28;20353;-68
2022/07/16 02:57:45;;;;;;;;;;;20.30;66.10;;;;;;1997564;28;20004;-68
2022/07/16 02:58:44;;;;;;;;;;;20.30;66.10;;;;;;1997429;28;20005;-68
2022/07/16 02:59:42;;;;;;;;;;;20.20;66.10;;;;;;1997408;28;19928;-68
2022/07/16 03:00:40;;;;;;;;;;;20.20;66.10;;;;;;1997231;28;20300;-68
2022/07/16 03:01:39;;;;;;;;;;;20.30;66.10;;;;;;1997429;28;19910;-67
2022/07/16 03:02:38;;;;;;;;;;;20.20;66.10;;;;;;1996717;28;20001;-68
2022/07/16 03:03:36;;;;;;;;;;;20.20;66.10;;;;;;1996889;28;20008;-68
2022/07/16 03:04:35;;;;;;;;;;;20.20;66.10;;;;;;1997351;28;19945;-68
2022/07/16 03:05:33;;;;;;;;;;;20.30;66.20;;;;;;1997358;28;19905;-68
2022/07/16 03:06:32;;;;;;;;;;;20.30;66.20;;;;;;1997371;28;19954;-68
2022/07/16 03:07:31;;;;;;;;;;;20.20;66.10;;;;;;1997341;28;19912;-68
2022/07/16 03:08:29;;;;;;;;;;;20.30;66.20;;;;;;1997377;28;19905;-68
2022/07/16 03:09:28;;;;;;;;;;;20.20;66.10;;;;;;1997430;28;19956;-68
2022/07/16 03:10:26;;;;;;;;;;;20.20;66.10;;;;;;1997277;28;20030;-68
2022/07/16 03:11:25;;;;;;;;;;;20.20;66.20;;;;;;1997430;28;19906;-68
2022/07/16 03:12:23;;;;;;;;;;;20.20;66.10;;;;;;1997506;28;19905;-68
2022/07/16 03:13:22;;;;;;;;;;;20.20;66.10;;;;;;1997443;28;20246;-68
2022/07/16 03:14:20;;;;;;;;;;;20.30;66.20;;;;;;1997440;28;19943;-68
2022/07/16 03:15:19;;;;;;;;;;;20.30;66.20;;;;;;1997427;28;19928;-68
2022/07/16 03:16:17;;;;;;;;;;;20.20;66.10;;;;;;1997268;28;19952;-68
2022/07/16 03:17:16;;;;;;;;;;;20.30;66.20;;;;;;1997413;28;19905;-68
2022/07/16 03:18:14;;;;;;;;;;;20.20;66.10;;;;;;1997287;28;19956;-68
2022/07/16 03:19:14;;;;;;;;;;;20.30;66.20;;;;;;1997129;28;20004;-68
2022/07/16 03:20:13;;;;;;;;;;;20.30;66.30;;;;;;1997293;28;20353;-68
2022/07/16 03:21:11;;;;;;;;;;;20.30;66.20;;;;;;1997233;28;19905;-68
2022/07/16 03:22:10;;;;;;;;;;;20.30;66.30;;;;;;1997354;28;19909;-68
2022/07/16 03:23:08;;;;;;;;;;;20.30;66.20;;;;;;1997339;28;20269;-68
2022/07/16 03:24:07;;;;;;;;;;;20.30;66.30;;;;;;1997390;28;19957;-68
2022/07/16 03:25:05;;;;;;;;;;;20.20;66.10;;;;;;1997205;28;19912;-68
2022/07/16 03:26:04;;;;;;;;;;;20.30;66.40;;;;;;1997361;28;19945;-68
2022/07/16 03:27:02;;;;;;;;;;;20.30;66.30;;;;;;1997407;28;19949;-68
2022/07/16 03:28:01;;;;;;;;;;;20.30;66.30;;;;;;1997280;28;20344;-68
2022/07/16 03:28:59;;;;;;;;;;;20.30;66.30;;;;;;1996731;28;19914;-68
2022/07/16 03:29:58;;;;;;;;;;;20.20;66.20;;;;;;1996699;28;19905;-68
2022/07/16 03:30:56;;;;;;;;;;;20.30;66.30;;;;;;1997292;28;20412;-68
2022/07/16 03:31:55;;;;;;;;;;;20.30;66.30;;;;;;1996664;28;19945;-68
2022/07/16 03:32:54;;;;;;;;;;;20.20;66.20;;;;;;1996739;28;20067;-68
2022/07/16 03:33:52;;;;;;;;;;;20.20;66.20;;;;;;1997323;28;19945;-68
2022/07/16 03:34:51;;;;;;;;;;;20.20;66.10;;;;;;1997219;28;19957;-68
2022/07/16 03:35:49;;;;;;;;;;;20.20;66.10;;;;;;1997101;28;19971;-68
2022/07/16 03:36:48;;;;;;;;;;;20.20;66.10;;;;;;1997287;28;19952;-68
2022/07/16 03:39:04;;;;;;;;;;;20.20;66.10;;;;;;1997319;28;19909;-68
2022/07/16 03:40:03;;;;;;;;;;;20.30;66.30;;;;;;1997519;28;20420;-68
2022/07/16 03:41:01;;;;;;;;;;;20.20;66.20;;;;;;1996452;28;19905;-68
2022/07/16 03:42:00;;;;;;;;;;;20.20;66.10;;;;;;1996630;28;20342;-68
2022/07/16 03:42:58;;;;;;;;;;;20.20;66.20;;;;;;1997155;28;19918;-68
2022/07/16 03:44:00;;;;;;;;;;;20.20;66.20;;;;;;1997161;28;20320;-68
2022/07/16 03:44:58;;;;;;;;;;;20.20;66.20;;;;;;1996609;28;20250;-68
2022/07/16 03:45:57;;;;;;;;;;;20.20;66.10;;;;;;1996610;28;19948;-68
2022/07/16 03:46:57;;;;;;;;;;;20.20;66.20;;;;;;1997145;28;19921;-68
2022/07/16 03:47:55;;;;;;;;;;;20.20;66.10;;;;;;1997277;28;19996;-68
2022/07/16 03:48:54;;;;;;;;;;;20.30;66.20;;;;;;1997285;28;19906;-68
2022/07/16 03:49:53;;;;;;;;;;;20.30;66.30;;;;;;1997102;28;19905;-68
2022/07/16 03:50:52;;;;;;;;;;;20.20;66.20;;;;;;1996992;28;20278;-68
2022/07/16 03:51:51;;;;;;;;;;;20.20;66.10;;;;;;1997185;28;20384;-68
2022/07/16 03:52:50;;;;;;;;;;;20.20;66.20;;;;;;1997056;28;19909;-68
2022/07/16 03:53:48;;;;;;;;;;;20.20;66.20;;;;;;1997141;28;19906;-68
2022/07/16 03:54:48;;;;;;;;;;;20.20;66.10;;;;;;1997010;28;19910;-68
2022/07/16 03:55:46;;;;;;;;;;;20.20;66.20;;;;;;1997053;28;19913;-68
2022/07/16 03:56:45;;;;;;;;;;;20.20;66.20;;;;;;1997174;28;20357;-67
2022/07/16 03:57:43;;;;;;;;;;;20.20;66.10;;;;;;1997053;28;19913;-68
2022/07/16 03:58:42;;;;;;;;;;;20.20;66.20;;;;;;1997115;28;19957;-68
2022/07/16 03:59:40;;;;;;;;;;;20.20;66.10;;;;;;1997163;28;19905;-68
2022/07/16 04:00:39;;;;;;;;;;;20.20;66.20;;;;;;1996626;28;19909;-68
2022/07/16 04:01:37;;;;;;;;;;;20.20;66.20;;;;;;1996931;28;20348;-68
2022/07/16 04:02:36;;;;;;;;;;;20.20;66.20;;;;;;1997131;28;19906;-68
2022/07/16 04:03:35;;;;;;;;;;;20.20;66.20;;;;;;1997139;28;19906;-68
2022/07/16 04:04:34;;;;;;;;;;;20.20;66.20;;;;;;1997065;28;20365;-68
2022/07/16 04:05:33;;;;;;;;;;;20.20;66.20;;;;;;1997134;28;19906;-68
2022/07/16 04:06:31;;;;;;;;;;;20.20;66.20;;;;;;1997087;28;19906;-68
2022/07/16 04:07:30;;;;;;;;;;;20.20;66.20;;;;;;1997128;28;19916;-68
2022/07/16 04:08:28;;;;;;;;;;;20.20;66.20;;;;;;1996514;28;19905;-68
2022/07/16 04:09:27;;;;;;;;;;;20.20;66.20;;;;;;1996545;28;20280;-68
2022/07/16 04:10:25;;;;;;;;;;;20.20;66.20;;;;;;1997082;28;19913;-68
2022/07/16 04:11:24;;;;;;;;;;;20.20;66.20;;;;;;1996971;28;20004;-68
2022/07/16 04:12:23;;;;;;;;;;;20.20;66.20;;;;;;1996992;28;20004;-68
2022/07/16 04:13:21;;;;;;;;;;;20.20;66.20;;;;;;1997049;28;19969;-68
2022/07/16 04:14:20;;;;;;;;;;;20.20;66.20;;;;;;1996945;28;20249;-68
2022/07/16 04:15:18;;;;;;;;;;;20.20;66.20;;;;;;1997017;28;19960;-68
2022/07/16 04:16:17;;;;;;;;;;;20.20;66.20;;;;;;1997064;28;20329;-68
2022/07/16 04:17:15;;;;;;;;;;;20.20;66.20;;;;;;1996804;28;19910;-68
2022/07/16 04:18:15;;;;;;;;;;;20.20;66.30;;;;;;1996947;28;19956;-68
2022/07/16 04:19:13;;;;;;;;;;;20.20;66.30;;;;;;1996984;28;19906;-68
2022/07/16 04:20:12;;;;;;;;;;;20.20;66.30;;;;;;1996893;28;19949;-68
2022/07/16 04:21:10;;;;;;;;;;;20.20;66.20;;;;;;1996853;28;19957;-68
2022/07/16 04:22:08;;;;;;;;;;;20.20;66.20;;;;;;1996948;28;19906;-68
2022/07/16 04:23:07;;;;;;;;;;;20.20;66.30;;;;;;1996910;28;19906;-68
2022/07/16 04:24:05;;;;;;;;;;;20.20;66.20;;;;;;1996968;28;19941;-68
2022/07/16 04:25:04;;;;;;;;;;;20.20;66.30;;;;;;1996963;28;19906;-68
2022/07/16 04:26:03;;;;;;;;;;;20.20;66.20;;;;;;1996978;28;19905;-68
2022/07/16 04:27:01;;;;;;;;;;;20.20;66.30;;;;;;1997034;28;19906;-67
2022/07/16 04:28:00;;;;;;;;;;;20.20;66.20;;;;;;1997054;28;19910;-68
2022/07/16 04:28:58;;;;;;;;;;;20.20;66.20;;;;;;1997005;28;19997;-68
2022/07/16 04:29:57;;;;;;;;;;;20.20;66.30;;;;;;1996965;28;19905;-68
2022/07/16 04:30:55;;;;;;;;;;;20.20;66.30;;;;;;1996852;28;19905;-68
2022/07/16 04:31:54;;;;;;;;;;;20.20;66.30;;;;;;1998562;28;19912;-68
2022/07/16 04:32:52;;;;;;;;;;;20.20;66.30;;;;;;1998468;28;20301;-68
2022/07/16 04:33:51;;;;;;;;;;;20.20;66.20;;;;;;1998526;28;19906;-68
2022/07/16 04:34:49;;;;;;;;;;;20.20;66.20;;;;;;1998451;28;19910;-68
2022/07/16 04:35:48;;;;;;;;;;;20.20;66.30;;;;;;1998342;28;19936;-68
2022/07/16 04:36:47;;;;;;;;;;;20.20;66.30;;;;;;1998406;28;20428;-67
2022/07/16 04:37:45;;;;;;;;;;;20.20;66.20;;;;;;1998556;28;19906;-68
2022/07/16 04:38:44;;;;;;;;;;;20.20;66.20;;;;;;1998410;28;20380;-68
2022/07/16 04:39:42;;;;;;;;;;;20.20;66.30;;;;;;1997852;28;20397;-68
2022/07/16 04:40:41;;;;;;;;;;;20.20;66.30;;;;;;1997956;28;20313;-68
2022/07/16 04:41:40;;;;;;;;;;;20.20;66.20;;;;;;1998423;28;19945;-68
2022/07/16 04:42:39;;;;;;;;;;;20.20;66.20;;;;;;1998499;28;19905;-68
2022/07/16 04:43:38;;;;;;;;;;;20.20;66.30;;;;;;1998543;28;20300;-68
2022/07/16 04:44:36;;;;;;;;;;;20.20;66.20;;;;;;1998354;28;19910;-68
2022/07/16 04:45:35;;;;;;;;;;;20.20;66.20;;;;;;1998396;28;19906;-68
2022/07/16 04:46:34;;;;;;;;;;;20.20;66.30;;;;;;1998693;28;19956;-68
2022/07/16 04:47:32;;;;;;;;;;;20.20;66.20;;;;;;1998567;28;20004;-68
2022/07/16 04:48:31;;;;;;;;;;;20.20;66.20;;;;;;1998491;28;19912;-68
2022/07/16 04:49:29;;;;;;;;;;;20.20;66.30;;;;;;1999135;28;19941;-67
2022/07/16 04:50:28;;;;;;;;;;;20.20;66.40;;;;;;1999060;28;19913;-67
2022/07/16 04:51:26;;;;;;;;;;;20.20;66.40;;;;;;1999053;28;19905;-67
2022/07/16 04:52:25;;;;;;;;;;;20.20;66.40;;;;;;1998657;28;19905;-68
2022/07/16 04:53:23;;;;;;;;;;;20.20;66.20;;;;;;1998370;28;19912;-68
2022/07/16 04:54:22;;;;;;;;;;;20.20;66.30;;;;;;1998378;28;19905;-68
2022/07/16 04:55:21;;;;;;;;;;;20.20;66.30;;;;;;1998074;28;19954;-68
2022/07/16 04:56:20;;;;;;;;;;;20.20;67.00;;;;;;1998319;28;19909;-68
2022/07/16 04:57:18;;;;;;;;;;;20.20;66.30;;;;;;1998279;28;19906;-67
2022/07/16 04:58:17;;;;;;;;;;;20.20;66.30;;;;;;1998420;28;19951;-68
2022/07/16 04:59:15;;;;;;;;;;;20.20;66.30;;;;;;1997828;28;19921;-68
2022/07/16 05:00:14;;;;;;;;;;;20.20;66.40;;;;;;1997657;28;19941;-68
2022/07/16 05:01:12;;;;;;;;;;;20.20;66.40;;;;;;1998283;28;19921;-68
2022/07/16 05:03:28;;;;;;;;;;;20.20;66.30;;;;;;1998545;28;19906;-68
2022/07/16 05:04:27;;;;;;;;;;;20.20;66.30;;;;;;1998440;28;19905;-68
2022/07/16 05:05:30;;;;;;;;;;;20.20;66.30;;;;;;1998281;28;20349;-68
2022/07/16 05:06:29;;;;;;;;;;;20.20;66.40;;;;;;1998274;28;19970;-68
2022/07/16 05:07:27;;;;;;;;;;;20.20;66.40;;;;;;1998228;28;20388;-68
2022/07/16 05:08:26;;;;;;;;;;;20.20;66.40;;;;;;1998413;28;20387;-67
2022/07/16 05:09:24;;;;;;;;;;;20.20;66.40;;;;;;1998161;28;19906;-68
2022/07/16 05:10:24;;;;;;;;;;;20.20;66.50;;;;;;1998168;28;19906;-68
2022/07/16 05:11:22;;;;;;;;;;;20.20;66.50;;;;;;1998241;28;20284;-68
2022/07/16 05:12:21;;;;;;;;;;;20.20;66.30;;;;;;1998222;28;19912;-68
2022/07/16 05:13:19;;;;;;;;;;;20.20;66.40;;;;;;1998276;28;19910;-68
2022/07/16 05:14:18;;;;;;;;;;;20.20;66.30;;;;;;1998231;28;19938;-68
2022/07/16 05:15:16;;;;;;;;;;;20.20;66.30;;;;;;1998227;28;19906;-68
2022/07/16 05:16:15;;;;;;;;;;;20.20;66.40;;;;;;1998390;28;19913;-68
2022/07/16 05:17:13;;;;;;;;;;;20.20;66.40;;;;;;1997576;28;20004;-68
2022/07/16 05:18:12;;;;;;;;;;;20.20;66.30;;;;;;1997559;28;19913;-68
2022/07/16 05:19:10;;;;;;;;;;;20.20;66.30;;;;;;1998182;28;19906;-68
2022/07/16 05:20:09;;;;;;;;;;;20.20;66.40;;;;;;1998171;28;19910;-68
2022/07/16 05:21:07;;;;;;;;;;;20.20;66.30;;;;;;1998139;28;20021;-68
2022/07/16 05:22:06;;;;;;;;;;;20.20;66.30;;;;;;1998165;28;20353;-68
2022/07/16 05:23:05;;;;;;;;;;;20.20;66.20;;;;;;1997535;28;19906;-68
2022/07/16 05:24:03;;;;;;;;;;;20.20;66.30;;;;;;1997590;28;20296;-68
2022/07/16 05:25:03;;;;;;;;;;;20.20;66.20;;;;;;1998327;28;20020;-68
2022/07/16 05:26:02;;;;;;;;;;;20.20;66.30;;;;;;1998283;28;19913;-68
2022/07/16 05:27:01;;;;;;;;;;;20.20;66.30;;;;;;1998089;28;19905;-68
2022/07/16 05:28:00;;;;;;;;;;;20.20;66.30;;;;;;1998120;28;19949;-68
2022/07/16 05:28:58;;;;;;;;;;;20.20;66.30;;;;;;1998308;28;20268;-68
2022/07/16 05:29:57;;;;;;;;;;;20.20;66.30;;;;;;1998203;28;19960;-68
2022/07/16 05:30:55;;;;;;;;;;;20.20;66.20;;;;;;1998020;28;20353;-68
2022/07/16 05:31:54;;;;;;;;;;;20.20;66.20;;;;;;1998216;28;20349;-68
2022/07/16 05:32:52;;;;;;;;;;;20.20;66.30;;;;;;1998053;28;19905;-68
2022/07/16 05:33:51;;;;;;;;;;;20.20;66.30;;;;;;1998198;28;19905;-68
2022/07/16 05:34:49;;;;;;;;;;;20.20;66.20;;;;;;1997381;28;19975;-67
2022/07/16 05:35:48;;;;;;;;;;;20.20;66.30;;;;;;1997430;28;19968;-68
2022/07/16 05:36:46;;;;;;;;;;;20.20;66.30;;;;;;1998196;28;20338;-68
2022/07/16 05:37:45;;;;;;;;;;;20.20;66.30;;;;;;1998109;28;19913;-68
2022/07/16 05:38:44;;;;;;;;;;;20.20;66.30;;;;;;1997469;28;19910;-68
2022/07/16 05:39:42;;;;;;;;;;;20.20;66.20;;;;;;1989686;28;20000;-68
2022/07/16 05:40:41;;;;;;;;;;;20.20;66.20;;;;;;1996925;28;20372;-68
2022/07/16 05:41:41;;;;;;;;;;;20.20;66.20;;;;;;1998275;28;19917;-68
2022/07/16 05:42:40;;;;;;;;;;;20.20;66.20;;;;;;1998241;28;20135;-68
2022/07/16 05:43:38;;;;;;;;;;;20.20;66.20;;;;;;1998193;28;20074;-68
2022/07/16 05:44:37;;;;;;;;;;;20.20;66.20;;;;;;1998055;28;19956;-68
2022/07/16 05:45:36;;;;;;;;;;;20.20;66.20;;;;;;1998135;28;19921;-68
2022/07/16 05:46:35;;;;;;;;;;;20.20;66.20;;;;;;1998080;28;20324;-68